Time,TemperatureF,DewpointF,PressureIn,WindDirection,WindDirectionDegrees,WindSpeedMPH,WindSpeedGustMPH,Humidity,HourlyPrecipIn,Conditions,Clouds,dailyrainin,SoftwareType,DateUTC
2013-12-31 00:03:00,23.9,18.0,30.40,West,259,2.0,5.0,77,0.00,,,0.00,weatherlink.com 1.10,2013-12-31 06:03:00,
2013-12-31 00:18:00,23.8,18.0,30.40,SW,222,1.0,4.0,78,0.00,,,0.00,weatherlink.com 1.10,2013-12-31 06:18:00,
2013-12-31 00:33:00,23.4,18.0,30.40,West,259,1.0,4.0,78,0.00,,,0.00,weatherlink.com 1.10,2013-12-31 06:33:00,
2013-12-31 00:48:00,23.3,17.0,30.41,West,278,2.0,4.0,78,0.00,,,0.00,weatherlink.com 1.10,2013-12-31 06:48:00,
2013-12-31 01:03:00,23.2,17.0,30.42,West,274,1.0,4.0,78,0.00,,,0.00,weatherlink.com 1.10,2013-12-31 07:03:00,
2013-12-31 01:18:00,23.4,17.0,30.41,WNW,295,2.0,4.0,77,0.00,,,0.00,weatherlink.com 1.10,2013-12-31 07:18:00,
2013-12-31 01:33:00,23.2,17.0,30.42,WNW,297,1.0,3.0,77,0.00,,,0.00,weatherlink.com 1.10,2013-12-31 07:33:00,
2013-12-31 01:48:00,23.6,17.0,30.42,West,270,1.0,3.0,75,0.00,,,0.00,weatherlink.com 1.10,2013-12-31 07:48:00,
2013-12-31 02:03:00,23.9,17.0,30.42,WNW,285,2.0,4.0,74,0.00,,,0.00,weatherlink.com 1.10,2013-12-31 08:03:00,
2013-12-31 02:18:00,23.9,17.0,30.42,SW,233,2.0,4.0,74,0.00,,,0.00,weatherlink.com 1.10,2013-12-31 08:18:00,
2013-12-31 02:33:00,23.7,17.0,30.43,West,278,2.0,3.0,74,0.00,,,0.00,weatherlink.com 1.10,2013-12-31 08:33:00,
2013-12-31 02:48:00,23.7,17.0,30.42,WNW,298,1.0,3.0,74,0.00,,,0.00,weatherlink.com 1.10,2013-12-31 08:48:00,
2013-12-31 03:03:00,24.0,17.0,30.42,SW,228,1.0,4.0,73,0.00,,,0.00,weatherlink.com 1.10,2013-12-31 09:03:00,
2013-12-31 03:18:00,23.6,16.0,30.42,WSW,241,2.0,5.0,74,0.00,,,0.00,weatherlink.com 1.10,2013-12-31 09:18:00,
2013-12-31 03:33:00,23.4,17.0,30.42,WSW,242,0.0,5.0,75,0.00,,,0.00,weatherlink.com 1.10,2013-12-31 09:33:00,
2013-12-31 03:48:00,23.2,16.0,30.42,West,276,2.0,5.0,75,0.00,,,0.00,weatherlink.com 1.10,2013-12-31 09:48:00,
2013-12-31 04:03:00,23.2,16.0,30.42,NW,309,2.0,3.0,75,0.00,,,0.00,weatherlink.com 1.10,2013-12-31 10:03:00,
2013-12-31 04:18:00,22.9,16.0,30.41,WSW,252,0.0,3.0,75,0.00,,,0.00,weatherlink.com 1.10,2013-12-31 10:18:00,
2013-12-31 04:33:00,22.7,16.0,30.41,WNW,290,1.0,2.0,76,0.00,,,0.00,weatherlink.com 1.10,2013-12-31 10:33:00,
2013-12-31 04:48:00,22.7,16.0,30.42,WSW,247,0.0,1.0,76,0.00,,,0.00,weatherlink.com 1.10,2013-12-31 10:48:00,
2013-12-31 05:03:00,22.4,16.0,30.42,WSW,242,1.0,3.0,77,0.00,,,0.00,weatherlink.com 1.10,2013-12-31 11:03:00,
2013-12-31 05:18:00,22.5,16.0,30.41,WSW,240,0.0,1.0,77,0.00,,,0.00,weatherlink.com 1.10,2013-12-31 11:18:00,
2013-12-31 05:33:00,22.2,16.0,30.42,West,278,2.0,2.0,77,0.00,,,0.00,weatherlink.com 1.10,2013-12-31 11:33:00,
2013-12-31 05:48:00,22.1,16.0,30.42,SSW,204,0.0,1.0,78,0.00,,,0.00,weatherlink.com 1.10,2013-12-31 11:48:00,
2013-12-31 06:03:00,21.5,16.0,30.42,SSW,203,0.0,1.0,78,0.00,,,0.00,weatherlink.com 1.10,2013-12-31 12:03:00,
2013-12-31 06:18:00,21.4,16.0,30.42,SSW,205,0.0,2.0,79,0.00,,,0.00,weatherlink.com 1.10,2013-12-31 12:18:00,
2013-12-31 06:33:00,22.2,16.0,30.43,South,190,0.0,4.0,78,0.00,,,0.00,weatherlink.com 1.10,2013-12-31 12:33:00,
2013-12-31 06:48:00,21.9,16.0,30.43,ESE,116,1.0,2.0,78,0.00,,,0.00,weatherlink.com 1.10,2013-12-31 12:48:00,
2013-12-31 07:03:00,21.1,16.0,30.43,ESE,123,1.0,1.0,79,0.00,,,0.00,weatherlink.com 1.10,2013-12-31 13:03:00,
2013-12-31 07:18:00,20.7,15.0,30.43,South,187,0.0,1.0,80,0.00,,,0.00,weatherlink.com 1.10,2013-12-31 13:18:00,
2013-12-31 07:33:00,21.1,16.0,30.43,ESE,119,1.0,2.0,81,0.00,,,0.00,weatherlink.com 1.10,2013-12-31 13:33:00,
2013-12-31 07:48:00,22.0,16.0,30.43,SE,134,1.0,2.0,79,0.00,,,0.00,weatherlink.com 1.10,2013-12-31 13:48:00,
2013-12-31 08:03:00,23.2,17.0,30.43,SE,129,1.0,3.0,78,0.00,,,0.00,weatherlink.com 1.10,2013-12-31 14:03:00,
2013-12-31 08:18:00,25.4,19.0,30.43,SSE,155,1.0,3.0,75,0.00,,,0.00,weatherlink.com 1.10,2013-12-31 14:18:00,
2013-12-31 08:33:00,26.7,18.0,30.44,SSW,211,0.0,3.0,71,0.00,,,0.00,weatherlink.com 1.10,2013-12-31 14:33:00,
2013-12-31 08:48:00,27.4,19.0,30.44,SE,145,1.0,3.0,71,0.00,,,0.00,weatherlink.com 1.10,2013-12-31 14:48:00,
2013-12-31 09:04:00,29.0,21.0,30.44,SE,127,1.0,3.0,71,0.00,,,0.00,weatherlink.com 1.10,2013-12-31 15:04:00,
2013-12-31 09:19:00,30.2,21.0,30.44,South,186,0.0,3.0,69,0.00,,,0.00,weatherlink.com 1.10,2013-12-31 15:19:00,
2013-12-31 09:34:00,31.8,22.0,30.44,ESE,114,1.0,3.0,67,0.00,,,0.00,weatherlink.com 1.10,2013-12-31 15:34:00,
2013-12-31 09:49:00,33.4,23.0,30.44,SE,133,2.0,4.0,67,0.00,,,0.00,weatherlink.com 1.10,2013-12-31 15:49:00,
2013-12-31 10:04:00,34.9,24.0,30.44,SE,146,0.0,4.0,64,0.00,,,0.00,weatherlink.com 1.10,2013-12-31 16:04:00,
2013-12-31 10:19:00,37.1,25.0,30.44,SE,139,0.0,3.0,63,0.00,,,0.00,weatherlink.com 1.10,2013-12-31 16:19:00,
2013-12-31 10:34:00,38.7,27.0,30.43,SSE,167,1.0,4.0,62,0.00,,,0.00,weatherlink.com 1.10,2013-12-31 16:34:00,
2013-12-31 10:49:00,40.3,27.0,30.43,SE,136,1.0,4.0,60,0.00,,,0.00,weatherlink.com 1.10,2013-12-31 16:49:00,
2013-12-31 11:19:00,42.4,27.0,30.40,SE,142,2.0,7.0,54,0.00,,,0.00,weatherlink.com 1.10,2013-12-31 17:19:00,
2013-12-31 11:34:00,43.9,28.0,30.39,ESE,121,3.0,5.0,53,0.00,,,0.00,weatherlink.com 1.10,2013-12-31 17:34:00,
2013-12-31 11:49:00,44.9,27.0,30.38,ESE,102,3.0,8.0,50,0.00,,,0.00,weatherlink.com 1.10,2013-12-31 17:49:00,
2013-12-31 12:04:00,45.8,27.0,30.36,SSE,150,3.0,7.0,49,0.00,,,0.00,weatherlink.com 1.10,2013-12-31 18:04:00,
2013-12-31 12:19:00,46.5,27.0,30.35,ESE,106,7.0,7.0,47,0.00,,,0.00,weatherlink.com 1.10,2013-12-31 18:19:00,
2013-12-31 12:34:00,47.0,28.0,30.34,SE,137,4.0,6.0,47,0.00,,,0.00,weatherlink.com 1.10,2013-12-31 18:34:00,
2013-12-31 12:50:00,48.0,27.0,30.33,SE,130,3.0,5.0,45,0.00,,,0.00,weatherlink.com 1.10,2013-12-31 18:50:00,
2013-12-31 13:05:00,48.9,27.0,30.32,SE,124,3.0,8.0,42,0.00,,,0.00,weatherlink.com 1.10,2013-12-31 19:05:00,
2013-12-31 13:20:00,49.7,27.0,30.31,ESE,117,2.0,8.0,42,0.00,,,0.00,weatherlink.com 1.10,2013-12-31 19:20:00,
2013-12-31 13:35:00,49.8,26.0,30.30,ESE,114,5.0,9.0,40,0.00,,,0.00,weatherlink.com 1.10,2013-12-31 19:35:00,
2013-12-31 13:50:00,50.1,25.0,30.30,SE,133,7.0,10.0,38,0.00,,,0.00,weatherlink.com 1.10,2013-12-31 19:50:00,
2013-12-31 14:05:00,50.6,26.0,30.29,South,188,1.0,9.0,38,0.00,,,0.00,weatherlink.com 1.10,2013-12-31 20:05:00,
2013-12-31 14:20:00,51.2,26.0,30.28,SSW,207,1.0,8.0,37,0.00,,,0.00,weatherlink.com 1.10,2013-12-31 20:20:00,
2013-12-31 14:35:00,52.1,26.0,30.27,SSW,205,5.0,7.0,36,0.00,,,0.00,weatherlink.com 1.10,2013-12-31 20:35:00,
2013-12-31 14:50:00,52.3,26.0,30.27,SSE,150,3.0,8.0,36,0.00,,,0.00,weatherlink.com 1.10,2013-12-31 20:50:00,
2013-12-31 15:05:00,52.4,26.0,30.27,SE,136,2.0,11.0,36,0.00,,,0.00,weatherlink.com 1.10,2013-12-31 21:05:00,
2013-12-31 15:20:00,52.4,27.0,30.26,SE,134,2.0,11.0,37,0.00,,,0.00,weatherlink.com 1.10,2013-12-31 21:20:00,
2013-12-31 15:50:00,52.3,27.0,30.26,ESE,115,3.0,10.0,38,0.00,,,0.00,weatherlink.com 1.10,2013-12-31 21:50:00,
2013-12-31 16:05:00,51.7,27.0,30.25,ESE,121,3.0,6.0,38,0.00,,,0.00,weatherlink.com 1.10,2013-12-31 22:05:00,
2013-12-31 16:20:00,51.3,26.0,30.25,ESE,121,1.0,6.0,38,0.00,,,0.00,weatherlink.com 1.10,2013-12-31 22:20:00,
2013-12-31 16:35:00,50.3,26.0,30.24,ESE,121,3.0,6.0,39,0.00,,,0.00,weatherlink.com 1.10,2013-12-31 22:35:00,
2013-12-31 16:50:00,49.0,25.0,30.24,East,95,3.0,5.0,40,0.00,,,0.00,weatherlink.com 1.10,2013-12-31 22:50:00,
2013-12-31 17:05:00,48.2,25.0,30.24,SE,139,2.0,5.0,41,0.00,,,0.00,weatherlink.com 1.10,2013-12-31 23:05:00,
2013-12-31 17:20:00,47.5,25.0,30.24,SE,135,2.0,5.0,42,0.00,,,0.00,weatherlink.com 1.10,2013-12-31 23:20:00,
2013-12-31 17:35:00,46.8,25.0,30.24,ESE,121,3.0,5.0,43,0.00,,,0.00,weatherlink.com 1.10,2013-12-31 23:35:00,
2013-12-31 17:50:00,45.8,25.0,30.24,SE,127,1.0,4.0,44,0.00,,,0.00,weatherlink.com 1.10,2013-12-31 23:50:00,
2013-12-31 18:05:00,45.1,25.0,30.24,SE,133,1.0,4.0,45,0.00,,,0.00,weatherlink.com 1.10,2014-01-01 00:05:00,
2013-12-31 18:20:00,44.9,25.0,30.24,SE,127,1.0,4.0,45,0.00,,,0.00,weatherlink.com 1.10,2014-01-01 00:20:00,
2013-12-31 18:35:00,45.5,23.0,30.24,East,92,1.0,4.0,42,0.00,,,0.00,weatherlink.com 1.10,2014-01-01 00:35:00,
2013-12-31 18:50:00,45.0,23.0,30.25,ESE,112,3.0,4.0,42,0.00,,,0.00,weatherlink.com 1.10,2014-01-01 00:50:00,
2013-12-31 19:05:00,44.2,23.0,30.25,SSE,150,2.0,5.0,43,0.00,,,0.00,weatherlink.com 1.10,2014-01-01 01:05:00,
2013-12-31 19:20:00,43.1,23.0,30.25,SSE,156,4.0,4.0,46,0.00,,,0.00,weatherlink.com 1.10,2014-01-01 01:20:00,
2013-12-31 19:35:00,42.6,23.0,30.25,SE,145,2.0,6.0,47,0.00,,,0.00,weatherlink.com 1.10,2014-01-01 01:35:00,
2013-12-31 19:50:00,41.9,23.0,30.25,SE,138,3.0,6.0,47,0.00,,,0.00,weatherlink.com 1.10,2014-01-01 01:50:00,
2013-12-31 20:05:00,41.2,23.0,30.26,ESE,102,2.0,6.0,49,0.00,,,0.00,weatherlink.com 1.10,2014-01-01 02:05:00,
2013-12-31 20:20:00,40.6,23.0,30.25,SSE,155,3.0,5.0,50,0.00,,,0.00,weatherlink.com 1.10,2014-01-01 02:20:00,
2013-12-31 20:36:00,39.5,23.0,30.25,SE,127,2.0,5.0,52,0.00,,,0.00,weatherlink.com 1.10,2014-01-01 02:36:00,
2013-12-31 20:50:00,39.1,23.0,30.24,SE,133,4.0,5.0,53,0.00,,,0.00,weatherlink.com 1.10,2014-01-01 02:50:00,
2013-12-31 21:05:00,38.7,24.0,30.23,SSE,153,3.0,7.0,55,0.00,,,0.00,weatherlink.com 1.10,2014-01-01 03:05:00,
2013-12-31 21:20:00,38.6,24.0,30.23,ESE,114,3.0,7.0,56,0.00,,,0.00,weatherlink.com 1.10,2014-01-01 03:20:00,
2013-12-31 21:35:00,38.2,24.0,30.22,ESE,115,3.0,6.0,58,0.00,,,0.00,weatherlink.com 1.10,2014-01-01 03:35:00,
2013-12-31 21:50:00,38.0,25.0,30.22,ESE,109,3.0,6.0,60,0.00,,,0.00,weatherlink.com 1.10,2014-01-01 03:50:00,
2013-12-31 22:05:00,37.7,25.0,30.22,SE,127,3.0,6.0,61,0.00,,,0.00,weatherlink.com 1.10,2014-01-01 04:05:00,
2013-12-31 22:21:00,37.4,25.0,30.22,SE,139,3.0,6.0,61,0.00,,,0.00,weatherlink.com 1.10,2014-01-01 04:21:00,
2013-12-31 22:36:00,36.7,25.0,30.23,SE,144,3.0,5.0,63,0.00,,,0.00,weatherlink.com 1.10,2014-01-01 04:36:00,
2013-12-31 22:51:00,36.3,25.0,30.22,SSE,157,3.0,5.0,64,0.00,,,0.00,weatherlink.com 1.10,2014-01-01 04:51:00,
2013-12-31 23:06:00,36.0,25.0,30.22,ESE,116,2.0,5.0,65,0.00,,,0.00,weatherlink.com 1.10,2014-01-01 05:06:00,
2013-12-31 23:21:00,35.6,25.0,30.22,SE,129,3.0,5.0,66,0.00,,,0.00,weatherlink.com 1.10,2014-01-01 05:21:00,
2013-12-31 23:36:00,35.1,25.0,30.21,ESE,118,2.0,4.0,67,0.00,,,0.00,weatherlink.com 1.10,2014-01-01 05:36:00,
2013-12-31 23:51:00,35.1,25.0,30.21,SSE,155,2.0,5.0,67,0.00,,,0.00,weatherlink.com 1.10,2014-01-01 05:51:00,